sensor_id;sensor_type;location;lat;lon;timestamp;temperature;humidity
75451;DHT22;64029;48.244;9.188;2023-02-16T00:01:01;-1.10;80.30
75451;DHT22;64029;48.244;9.188;2023-02-16T00:03:29;-1.20;80.30
75451;DHT22;64029;48.244;9.188;2023-02-16T00:05:56;-1.20;80.40
75451;DHT22;64029;48.244;9.188;2023-02-16T00:08:22;-1.20;80.30
75451;DHT22;64029;48.244;9.188;2023-02-16T00:10:49;-1.30;80.20
75451;DHT22;64029;48.244;9.188;2023-02-16T00:13:34;-1.30;80.20
75451;DHT22;64029;48.244;9.188;2023-02-16T00:16:14;-1.30;80.20
75451;DHT22;64029;48.244;9.188;2023-02-16T00:18:41;-1.30;80.30
75451;DHT22;64029;48.244;9.188;2023-02-16T00:21:08;-1.30;80.20
75451;DHT22;64029;48.244;9.188;2023-02-16T00:23:35;-1.30;80.40
75451;DHT22;64029;48.244;9.188;2023-02-16T00:26:02;-1.30;80.80
75451;DHT22;64029;48.244;9.188;2023-02-16T00:28:30;-1.30;80.60
75451;DHT22;64029;48.244;9.188;2023-02-16T00:30:57;-1.30;80.60
75451;DHT22;64029;48.244;9.188;2023-02-16T00:33:25;-1.30;80.50
75451;DHT22;64029;48.244;9.188;2023-02-16T00:35:52;-1.30;80.70
75451;DHT22;64029;48.244;9.188;2023-02-16T00:38:19;-1.30;80.60
75451;DHT22;64029;48.244;9.188;2023-02-16T00:40:46;-1.30;80.70
75451;DHT22;64029;48.244;9.188;2023-02-16T00:43:23;-1.40;80.50
75451;DHT22;64029;48.244;9.188;2023-02-16T00:45:50;-1.40;80.40
75451;DHT22;64029;48.244;9.188;2023-02-16T00:48:18;-1.40;80.40
75451;DHT22;64029;48.244;9.188;2023-02-16T00:50:46;-1.40;80.50
75451;DHT22;64029;48.244;9.188;2023-02-16T00:53:13;-1.40;80.70
75451;DHT22;64029;48.244;9.188;2023-02-16T00:55:41;-1.50;80.50
75451;DHT22;64029;48.244;9.188;2023-02-16T00:58:15;-1.40;80.70
75451;DHT22;64029;48.244;9.188;2023-02-16T01:00:47;-1.50;80.60
75451;DHT22;64029;48.244;9.188;2023-02-16T01:03:16;-1.50;80.60
75451;DHT22;64029;48.244;9.188;2023-02-16T01:05:45;-1.50;80.50
75451;DHT22;64029;48.244;9.188;2023-02-16T01:08:14;-1.50;81.00
75451;DHT22;64029;48.244;9.188;2023-02-16T01:11:00;-1.50;80.40
75451;DHT22;64029;48.244;9.188;2023-02-16T01:13:38;-1.60;80.30
75451;DHT22;64029;48.244;9.188;2023-02-16T01:16:12;-1.60;80.40
75451;DHT22;64029;48.244;9.188;2023-02-16T01:18:39;-1.60;80.60
75451;DHT22;64029;48.244;9.188;2023-02-16T01:21:08;-1.60;80.50
75451;DHT22;64029;48.244;9.188;2023-02-16T01:23:35;-1.70;80.30
75451;DHT22;64029;48.244;9.188;2023-02-16T01:26:02;-1.70;80.20
75451;DHT22;64029;48.244;9.188;2023-02-16T01:28:32;-1.70;80.40
75451;DHT22;64029;48.244;9.188;2023-02-16T01:30:59;-1.70;80.40
75451;DHT22;64029;48.244;9.188;2023-02-16T01:33:26;-1.80;80.20
75451;DHT22;64029;48.244;9.188;2023-02-16T01:35:54;-1.80;80.20
75451;DHT22;64029;48.244;9.188;2023-02-16T01:38:24;-1.80;80.10
75451;DHT22;64029;48.244;9.188;2023-02-16T01:40:59;-1.80;80.20
75451;DHT22;64029;48.244;9.188;2023-02-16T01:43:33;-1.80;80.10
75451;DHT22;64029;48.244;9.188;2023-02-16T01:46:09;-1.90;80.10
75451;DHT22;64029;48.244;9.188;2023-02-16T01:48:36;-1.90;80.10
75451;DHT22;64029;48.244;9.188;2023-02-16T01:51:06;-1.90;80.10
75451;DHT22;64029;48.244;9.188;2023-02-16T01:53:43;-1.90;80.20
75451;DHT22;64029;48.244;9.188;2023-02-16T01:56:18;-1.90;80.20
75451;DHT22;64029;48.244;9.188;2023-02-16T01:58:53;-2.00;80.10
75451;DHT22;64029;48.244;9.188;2023-02-16T02:01:43;-2.00;80.10
75451;DHT22;64029;48.244;9.188;2023-02-16T02:04:23;-2.00;80.20
75451;DHT22;64029;48.244;9.188;2023-02-16T02:07:18;-2.00;80.30
75451;DHT22;64029;48.244;9.188;2023-02-16T02:09:54;-2.00;80.20
75451;DHT22;64029;48.244;9.188;2023-02-16T02:12:27;-2.00;80.10
75451;DHT22;64029;48.244;9.188;2023-02-16T02:14:56;-2.10;80.10
75451;DHT22;64029;48.244;9.188;2023-02-16T02:17:23;-2.10;80.30
75451;DHT22;64029;48.244;9.188;2023-02-16T02:19:58;-2.10;80.30
75451;DHT22;64029;48.244;9.188;2023-02-16T02:23:07;-2.10;80.30
75451;DHT22;64029;48.244;9.188;2023-02-16T02:29:06;-2.10;80.40
75451;DHT22;64029;48.244;9.188;2023-02-16T02:31:45;-2.10;80.40
75451;DHT22;64029;48.244;9.188;2023-02-16T02:34:21;-2.10;80.50
75451;DHT22;64029;48.244;9.188;2023-02-16T02:36:59;-2.20;80.40
75451;DHT22;64029;48.244;9.188;2023-02-16T02:39:35;-2.20;80.20
75451;DHT22;64029;48.244;9.188;2023-02-16T02:42:12;-2.20;80.30
75451;DHT22;64029;48.244;9.188;2023-02-16T02:44:45;-2.20;80.20
75451;DHT22;64029;48.244;9.188;2023-02-16T02:47:14;-2.20;80.20
75451;DHT22;64029;48.244;9.188;2023-02-16T02:49:48;-2.30;80.20
75451;DHT22;64029;48.244;9.188;2023-02-16T02:52:15;-2.30;80.30
75451;DHT22;64029;48.244;9.188;2023-02-16T02:54:42;-2.30;80.20
75451;DHT22;64029;48.244;9.188;2023-02-16T02:57:32;-2.30;80.30
75451;DHT22;64029;48.244;9.188;2023-02-16T03:00:21;-2.30;80.30
75451;DHT22;64029;48.244;9.188;2023-02-16T03:03:13;-2.30;80.40
75451;DHT22;64029;48.244;9.188;2023-02-16T03:05:44;-2.30;80.50
75451;DHT22;64029;48.244;9.188;2023-02-16T03:08:13;-2.30;80.50
75451;DHT22;64029;48.244;9.188;2023-02-16T03:10:43;-2.30;80.40
75451;DHT22;64029;48.244;9.188;2023-02-16T03:13:34;-2.30;80.40
75451;DHT22;64029;48.244;9.188;2023-02-16T03:16:07;-2.30;80.50
75451;DHT22;64029;48.244;9.188;2023-02-16T03:18:36;-2.40;80.40
75451;DHT22;64029;48.244;9.188;2023-02-16T03:21:22;-2.40;80.40
75451;DHT22;64029;48.244;9.188;2023-02-16T03:24:12;-2.40;81.10
75451;DHT22;64029;48.244;9.188;2023-02-16T03:26:58;-2.40;80.40
75451;DHT22;64029;48.244;9.188;2023-02-16T03:29:43;-2.40;80.40
75451;DHT22;64029;48.244;9.188;2023-02-16T03:32:12;-2.50;80.30
75451;DHT22;64029;48.244;9.188;2023-02-16T03:34:39;-2.50;80.30
75451;DHT22;64029;48.244;9.188;2023-02-16T03:37:06;-2.50;81.00
75451;DHT22;64029;48.244;9.188;2023-02-16T03:39:33;-2.50;80.30
75451;DHT22;64029;48.244;9.188;2023-02-16T03:42:21;-2.50;80.30
75451;DHT22;64029;48.244;9.188;2023-02-16T03:44:48;-2.50;80.30
75451;DHT22;64029;48.244;9.188;2023-02-16T03:47:17;-2.50;80.30
75451;DHT22;64029;48.244;9.188;2023-02-16T03:49:44;-2.60;80.20
75451;DHT22;64029;48.244;9.188;2023-02-16T03:52:10;-2.60;80.20
75451;DHT22;64029;48.244;9.188;2023-02-16T03:54:37;-2.60;80.30
75451;DHT22;64029;48.244;9.188;2023-02-16T03:57:04;-2.60;80.30
75451;DHT22;64029;48.244;9.188;2023-02-16T03:59:31;-2.60;80.40
75451;DHT22;64029;48.244;9.188;2023-02-16T04:01:58;-2.60;80.50
75451;DHT22;64029;48.244;9.188;2023-02-16T04:04:26;-2.60;80.50
75451;DHT22;64029;48.244;9.188;2023-02-16T04:06:53;-2.60;80.40
75451;DHT22;64029;48.244;9.188;2023-02-16T04:09:19;-2.60;80.40
75451;DHT22;64029;48.244;9.188;2023-02-16T04:11:46;-2.70;80.40
75451;DHT22;64029;48.244;9.188;2023-02-16T04:14:30;-2.70;80.30
75451;DHT22;64029;48.244;9.188;2023-02-16T04:16:57;-2.70;80.30
75451;DHT22;64029;48.244;9.188;2023-02-16T04:19:25;-2.70;80.40
75451;DHT22;64029;48.244;9.188;2023-02-16T04:21:52;-2.70;80.50
75451;DHT22;64029;48.244;9.188;2023-02-16T04:24:19;-2.70;80.40
75451;DHT22;64029;48.244;9.188;2023-02-16T04:26:46;-2.80;80.20
75451;DHT22;64029;48.244;9.188;2023-02-16T04:29:14;-2.70;80.40
75451;DHT22;64029;48.244;9.188;2023-02-16T04:31:40;-2.80;80.40
75451;DHT22;64029;48.244;9.188;2023-02-16T04:34:07;-2.80;80.20
75451;DHT22;64029;48.244;9.188;2023-02-16T04:36:36;-2.80;80.30
75451;DHT22;64029;48.244;9.188;2023-02-16T04:39:03;-2.90;80.20
75451;DHT22;64029;48.244;9.188;2023-02-16T04:41:30;-2.90;80.00
75451;DHT22;64029;48.244;9.188;2023-02-16T04:43:56;-2.90;80.20
75451;DHT22;64029;48.244;9.188;2023-02-16T04:46:23;-2.90;80.20
75451;DHT22;64029;48.244;9.188;2023-02-16T04:48:50;-2.90;80.20
75451;DHT22;64029;48.244;9.188;2023-02-16T04:51:17;-2.90;80.30
75451;DHT22;64029;48.244;9.188;2023-02-16T04:53:45;-2.90;80.40
75451;DHT22;64029;48.244;9.188;2023-02-16T04:56:12;-2.90;80.40
75451;DHT22;64029;48.244;9.188;2023-02-16T04:58:39;-3.00;80.30
75451;DHT22;64029;48.244;9.188;2023-02-16T05:01:06;-3.00;80.30
75451;DHT22;64029;48.244;9.188;2023-02-16T05:03:33;-3.00;80.50
75451;DHT22;64029;48.244;9.188;2023-02-16T05:05:59;-3.00;80.30
75451;DHT22;64029;48.244;9.188;2023-02-16T05:08:26;-3.00;80.30
75451;DHT22;64029;48.244;9.188;2023-02-16T05:10:55;-3.00;80.50
75451;DHT22;64029;48.244;9.188;2023-02-16T05:13:40;-3.00;80.40
75451;DHT22;64029;48.244;9.188;2023-02-16T05:16:24;-3.00;80.40
75451;DHT22;64029;48.244;9.188;2023-02-16T05:18:51;-3.00;80.50
75451;DHT22;64029;48.244;9.188;2023-02-16T05:21:18;-3.00;80.50
75451;DHT22;64029;48.244;9.188;2023-02-16T05:23:57;-3.00;80.30
75451;DHT22;64029;48.244;9.188;2023-02-16T05:26:26;-3.00;80.40
75451;DHT22;64029;48.244;9.188;2023-02-16T05:28:52;-3.00;81.20
75451;DHT22;64029;48.244;9.188;2023-02-16T05:31:20;-3.10;80.20
75451;DHT22;64029;48.244;9.188;2023-02-16T05:33:46;-3.10;80.20
75451;DHT22;64029;48.244;9.188;2023-02-16T05:36:13;-3.10;80.30
75451;DHT22;64029;48.244;9.188;2023-02-16T05:38:40;-3.10;80.50
75451;DHT22;64029;48.244;9.188;2023-02-16T05:41:07;-3.10;80.50
75451;DHT22;64029;48.244;9.188;2023-02-16T05:43:36;-3.10;80.50
75451;DHT22;64029;48.244;9.188;2023-02-16T05:46:06;-3.10;80.40
75451;DHT22;64029;48.244;9.188;2023-02-16T05:48:33;-3.10;80.40
75451;DHT22;64029;48.244;9.188;2023-02-16T05:50:59;-3.20;80.30
75451;DHT22;64029;48.244;9.188;2023-02-16T05:53:26;-3.20;80.20
75451;DHT22;64029;48.244;9.188;2023-02-16T05:55:53;-3.20;80.20
75451;DHT22;64029;48.244;9.188;2023-02-16T05:58:20;-3.20;80.30
75451;DHT22;64029;48.244;9.188;2023-02-16T06:00:48;-3.20;80.40
75451;DHT22;64029;48.244;9.188;2023-02-16T06:03:15;-3.20;80.40
75451;DHT22;64029;48.244;9.188;2023-02-16T06:05:42;-3.20;80.40
75451;DHT22;64029;48.244;9.188;2023-02-16T06:08:09;-3.20;80.40
75451;DHT22;64029;48.244;9.188;2023-02-16T06:10:36;-3.30;80.20
75451;DHT22;64029;48.244;9.188;2023-02-16T06:13:03;-3.30;81.00
75451;DHT22;64029;48.244;9.188;2023-02-16T06:15:29;-3.30;80.30
75451;DHT22;64029;48.244;9.188;2023-02-16T06:17:58;-3.30;80.20
75451;DHT22;64029;48.244;9.188;2023-02-16T06:20:25;-3.30;80.20
75451;DHT22;64029;48.244;9.188;2023-02-16T06:22:52;-3.30;80.30
75451;DHT22;64029;48.244;9.188;2023-02-16T06:25:19;-3.30;80.20
75451;DHT22;64029;48.244;9.188;2023-02-16T06:27:45;-3.40;80.10
75451;DHT22;64029;48.244;9.188;2023-02-16T06:30:12;-3.40;80.10
75451;DHT22;64029;48.244;9.188;2023-02-16T06:32:39;-3.40;80.10
75451;DHT22;64029;48.244;9.188;2023-02-16T06:35:08;-3.40;80.20
75451;DHT22;64029;48.244;9.188;2023-02-16T06:37:35;-3.40;80.20
75451;DHT22;64029;48.244;9.188;2023-02-16T06:40:02;-3.40;80.10
75451;DHT22;64029;48.244;9.188;2023-02-16T06:42:29;-3.40;80.10
75451;DHT22;64029;48.244;9.188;2023-02-16T06:44:56;-3.40;80.10
75451;DHT22;64029;48.244;9.188;2023-02-16T06:47:22;-3.40;80.20
75451;DHT22;64029;48.244;9.188;2023-02-16T06:49:49;-3.40;80.20
75451;DHT22;64029;48.244;9.188;2023-02-16T06:52:18;-3.40;80.10
75451;DHT22;64029;48.244;9.188;2023-02-16T06:54:44;-3.40;80.30
75451;DHT22;64029;48.244;9.188;2023-02-16T06:57:11;-3.50;80.20
75451;DHT22;64029;48.244;9.188;2023-02-16T06:59:38;-3.50;80.20
75451;DHT22;64029;48.244;9.188;2023-02-16T07:02:05;-3.50;80.10
75451;DHT22;64029;48.244;9.188;2023-02-16T07:04:32;-3.50;80.20
75451;DHT22;64029;48.244;9.188;2023-02-16T07:06:59;-3.50;80.20
75451;DHT22;64029;48.244;9.188;2023-02-16T07:09:27;-3.50;80.20
75451;DHT22;64029;48.244;9.188;2023-02-16T07:11:54;-3.60;80.10
75451;DHT22;64029;48.244;9.188;2023-02-16T07:14:21;-3.60;80.20
75451;DHT22;64029;48.244;9.188;2023-02-16T07:16:48;-3.50;80.30
75451;DHT22;64029;48.244;9.188;2023-02-16T07:19:15;-3.50;80.30
75451;DHT22;64029;48.244;9.188;2023-02-16T07:21:41;-3.50;80.30
75451;DHT22;64029;48.244;9.188;2023-02-16T07:24:08;-3.50;80.30
75451;DHT22;64029;48.244;9.188;2023-02-16T07:26:36;-3.60;80.20
75451;DHT22;64029;48.244;9.188;2023-02-16T07:29:04;-3.60;80.10
75451;DHT22;64029;48.244;9.188;2023-02-16T07:31:30;-3.50;80.20
75451;DHT22;64029;48.244;9.188;2023-02-16T07:33:57;-3.50;80.40
75451;DHT22;64029;48.244;9.188;2023-02-16T07:36:24;-3.50;80.30
75451;DHT22;64029;48.244;9.188;2023-02-16T07:38:51;-3.50;80.40
75451;DHT22;64029;48.244;9.188;2023-02-16T07:41:19;-3.50;80.30
75451;DHT22;64029;48.244;9.188;2023-02-16T07:43:48;-3.50;80.20
75451;DHT22;64029;48.244;9.188;2023-02-16T07:46:14;-3.50;80.40
75451;DHT22;64029;48.244;9.188;2023-02-16T07:48:41;-3.40;80.50
75451;DHT22;64029;48.244;9.188;2023-02-16T07:51:08;-3.40;80.40
75451;DHT22;64029;48.244;9.188;2023-02-16T07:53:35;-3.40;80.50
75451;DHT22;64029;48.244;9.188;2023-02-16T07:56:02;-3.40;80.40
75451;DHT22;64029;48.244;9.188;2023-02-16T07:58:29;-3.30;80.60
75451;DHT22;64029;48.244;9.188;2023-02-16T08:01:07;-3.30;80.70
75451;DHT22;64029;48.244;9.188;2023-02-16T08:03:34;-3.20;80.80
75451;DHT22;64029;48.244;9.188;2023-02-16T08:06:01;-3.10;81.00
75451;DHT22;64029;48.244;9.188;2023-02-16T08:08:29;-3.10;80.90
75451;DHT22;64029;48.244;9.188;2023-02-16T08:10:56;-3.00;81.10
75451;DHT22;64029;48.244;9.188;2023-02-16T08:13:23;-2.90;81.30
75451;DHT22;64029;48.244;9.188;2023-02-16T08:15:49;-2.90;81.20
75451;DHT22;64029;48.244;9.188;2023-02-16T08:18:17;-2.90;81.10
75451;DHT22;64029;48.244;9.188;2023-02-16T08:20:44;-2.80;81.40
75451;DHT22;64029;48.244;9.188;2023-02-16T08:23:11;-2.80;81.70
75451;DHT22;64029;48.244;9.188;2023-02-16T08:25:38;-2.70;81.70
75451;DHT22;64029;48.244;9.188;2023-02-16T08:28:05;-2.60;82.00
75451;DHT22;64029;48.244;9.188;2023-02-16T08:30:32;-2.60;81.70
75451;DHT22;64029;48.244;9.188;2023-02-16T08:33:00;-2.50;82.30
75451;DHT22;64029;48.244;9.188;2023-02-16T08:35:29;-2.40;82.20
75451;DHT22;64029;48.244;9.188;2023-02-16T08:37:57;-2.40;82.80
75451;DHT22;64029;48.244;9.188;2023-02-16T08:40:24;-2.30;84.30
75451;DHT22;64029;48.244;9.188;2023-02-16T08:42:51;-2.20;84.60
75451;DHT22;64029;48.244;9.188;2023-02-16T08:45:18;-2.10;84.60
75451;DHT22;64029;48.244;9.188;2023-02-16T08:47:46;-2.00;86.10
75451;DHT22;64029;48.244;9.188;2023-02-16T08:50:13;-1.80;87.10
75451;DHT22;64029;48.244;9.188;2023-02-16T08:52:42;-1.80;85.50
75451;DHT22;64029;48.244;9.188;2023-02-16T08:55:10;-1.90;84.60
75451;DHT22;64029;48.244;9.188;2023-02-16T08:57:38;-1.80;86.00
75451;DHT22;64029;48.244;9.188;2023-02-16T09:00:06;-1.60;87.50
75451;DHT22;64029;48.244;9.188;2023-02-16T09:02:51;-1.50;87.80
75451;DHT22;64029;48.244;9.188;2023-02-16T09:05:17;-1.40;87.40
75451;DHT22;64029;48.244;9.188;2023-02-16T09:07:45;-1.30;88.70
75451;DHT22;64029;48.244;9.188;2023-02-16T09:10:13;-1.10;89.50
75451;DHT22;64029;48.244;9.188;2023-02-16T09:12:39;-0.90;89.90
75451;DHT22;64029;48.244;9.188;2023-02-16T09:15:08;-0.90;88.90
75451;DHT22;64029;48.244;9.188;2023-02-16T09:17:36;-0.80;89.10
75451;DHT22;64029;48.244;9.188;2023-02-16T09:20:04;-0.80;89.20
75451;DHT22;64029;48.244;9.188;2023-02-16T09:22:31;-0.50;90.20
75451;DHT22;64029;48.244;9.188;2023-02-16T09:25:00;-0.60;89.80
75451;DHT22;64029;48.244;9.188;2023-02-16T09:27:26;-0.50;90.00
75451;DHT22;64029;48.244;9.188;2023-02-16T09:29:53;-0.40;89.70
75451;DHT22;64029;48.244;9.188;2023-02-16T09:32:27;-0.20;90.30
75451;DHT22;64029;48.244;9.188;2023-02-16T09:34:53;0.10;91.10
75451;DHT22;64029;48.244;9.188;2023-02-16T09:37:20;0.10;90.80
75451;DHT22;64029;48.244;9.188;2023-02-16T09:39:47;0.30;91.00
75451;DHT22;64029;48.244;9.188;2023-02-16T09:42:24;0.60;91.40
75451;DHT22;64029;48.244;9.188;2023-02-16T09:44:59;0.80;91.40
75451;DHT22;64029;48.244;9.188;2023-02-16T09:47:31;0.60;90.80
75451;DHT22;64029;48.244;9.188;2023-02-16T09:50:00;0.80;91.10
75451;DHT22;64029;48.244;9.188;2023-02-16T09:52:34;1.10;91.60
75451;DHT22;64029;48.244;9.188;2023-02-16T09:55:06;1.40;91.90
75451;DHT22;64029;48.244;9.188;2023-02-16T09:57:53;1.80;92.20
75451;DHT22;64029;48.244;9.188;2023-02-16T10:00:28;1.60;91.50
75451;DHT22;64029;48.244;9.188;2023-02-16T10:03:08;1.60;91.60
75451;DHT22;64029;48.244;9.188;2023-02-16T10:05:44;1.80;91.60
75451;DHT22;64029;48.244;9.188;2023-02-16T10:08:15;2.00;91.80
75451;DHT22;64029;48.244;9.188;2023-02-16T10:10:47;2.50;92.00
75451;DHT22;64029;48.244;9.188;2023-02-16T10:13:21;2.30;91.10
75451;DHT22;64029;48.244;9.188;2023-02-16T10:15:50;2.80;91.70
75451;DHT22;64029;48.244;9.188;2023-02-16T10:18:22;2.90;90.60
75451;DHT22;64029;48.244;9.188;2023-02-16T10:20:52;3.20;90.90
75451;DHT22;64029;48.244;9.188;2023-02-16T10:23:31;3.60;89.60
75451;DHT22;64029;48.244;9.188;2023-02-16T10:26:05;3.60;88.60
75451;DHT22;64029;48.244;9.188;2023-02-16T10:28:43;3.60;88.10
75451;DHT22;64029;48.244;9.188;2023-02-16T10:31:14;3.40;89.20
75451;DHT22;64029;48.244;9.188;2023-02-16T10:33:48;3.20;90.00
75451;DHT22;64029;48.244;9.188;2023-02-16T10:36:23;3.10;90.10
75451;DHT22;64029;48.244;9.188;2023-02-16T10:38:58;3.40;90.10
75451;DHT22;64029;48.244;9.188;2023-02-16T10:41:31;3.80;88.30
75451;DHT22;64029;48.244;9.188;2023-02-16T10:44:07;4.00;89.10
75451;DHT22;64029;48.244;9.188;2023-02-16T10:46:40;4.10;87.90
75451;DHT22;64029;48.244;9.188;2023-02-16T10:49:11;4.10;86.80
75451;DHT22;64029;48.244;9.188;2023-02-16T10:51:40;4.20;86.30
75451;DHT22;64029;48.244;9.188;2023-02-16T10:54:12;4.40;85.80
75451;DHT22;64029;48.244;9.188;2023-02-16T10:56:49;4.80;86.20
75451;DHT22;64029;48.244;9.188;2023-02-16T10:59:21;4.50;86.40
75451;DHT22;64029;48.244;9.188;2023-02-16T11:01:50;4.50;86.40
75451;DHT22;64029;48.244;9.188;2023-02-16T11:04:37;4.50;86.40
75451;DHT22;64029;48.244;9.188;2023-02-16T11:07:06;4.80;85.40
75451;DHT22;64029;48.244;9.188;2023-02-16T11:09:34;4.90;84.80
75451;DHT22;64029;48.244;9.188;2023-02-16T11:12:01;4.60;85.20
75451;DHT22;64029;48.244;9.188;2023-02-16T11:14:30;4.70;85.30
75451;DHT22;64029;48.244;9.188;2023-02-16T11:17:06;5.10;84.00
75451;DHT22;64029;48.244;9.188;2023-02-16T11:19:33;5.30;84.20
75451;DHT22;64029;48.244;9.188;2023-02-16T11:22:00;5.10;84.20
75451;DHT22;64029;48.244;9.188;2023-02-16T11:24:30;5.40;83.10
75451;DHT22;64029;48.244;9.188;2023-02-16T11:27:04;5.80;81.90
75451;DHT22;64029;48.244;9.188;2023-02-16T11:29:33;5.50;82.70
75451;DHT22;64029;48.244;9.188;2023-02-16T11:32:07;5.40;83.10
75451;DHT22;64029;48.244;9.188;2023-02-16T11:34:36;5.40;83.10
75451;DHT22;64029;48.244;9.188;2023-02-16T11:37:09;5.70;81.70
75451;DHT22;64029;48.244;9.188;2023-02-16T11:39:40;5.80;81.60
75451;DHT22;64029;48.244;9.188;2023-02-16T11:42:19;5.80;81.40
75451;DHT22;64029;48.244;9.188;2023-02-16T11:44:52;6.00;79.80
75451;DHT22;64029;48.244;9.188;2023-02-16T11:47:23;6.10;81.60
75451;DHT22;64029;48.244;9.188;2023-02-16T11:50:07;6.00;81.70
75451;DHT22;64029;48.244;9.188;2023-02-16T11:52:34;6.30;80.70
75451;DHT22;64029;48.244;9.188;2023-02-16T11:55:02;6.40;79.50
75451;DHT22;64029;48.244;9.188;2023-02-16T11:57:31;6.70;78.30
75451;DHT22;64029;48.244;9.188;2023-02-16T12:00:02;6.50;79.30
75451;DHT22;64029;48.244;9.188;2023-02-16T12:05:37;6.80;77.90
75451;DHT22;64029;48.244;9.188;2023-02-16T12:08:24;6.90;78.30
75451;DHT22;64029;48.244;9.188;2023-02-16T12:11:08;6.60;79.40
75451;DHT22;64029;48.244;9.188;2023-02-16T12:13:44;6.70;79.30
75451;DHT22;64029;48.244;9.188;2023-02-16T12:16:23;6.70;79.50
75451;DHT22;64029;48.244;9.188;2023-02-16T12:19:02;6.70;79.50
75451;DHT22;64029;48.244;9.188;2023-02-16T12:21:38;7.20;78.30
75451;DHT22;64029;48.244;9.188;2023-02-16T12:24:16;6.80;79.20
75451;DHT22;64029;48.244;9.188;2023-02-16T12:26:48;6.80;79.90
75451;DHT22;64029;48.244;9.188;2023-02-16T12:29:30;6.90;79.50
75451;DHT22;64029;48.244;9.188;2023-02-16T12:32:10;6.90;79.30
75451;DHT22;64029;48.244;9.188;2023-02-16T12:34:51;7.00;79.10
75451;DHT22;64029;48.244;9.188;2023-02-16T12:37:25;7.00;79.40
75451;DHT22;64029;48.244;9.188;2023-02-16T12:40:02;7.20;78.30
75451;DHT22;64029;48.244;9.188;2023-02-16T12:42:55;7.20;78.50
75451;DHT22;64029;48.244;9.188;2023-02-16T12:45:27;7.20;78.60
75451;DHT22;64029;48.244;9.188;2023-02-16T12:48:00;7.10;79.30
75451;DHT22;64029;48.244;9.188;2023-02-16T12:50:33;7.50;76.60
75451;DHT22;64029;48.244;9.188;2023-02-16T12:53:03;7.60;75.90
75451;DHT22;64029;48.244;9.188;2023-02-16T12:55:35;7.40;77.90
75451;DHT22;64029;48.244;9.188;2023-02-16T12:58:15;7.30;77.90
75451;DHT22;64029;48.244;9.188;2023-02-16T13:00:46;7.60;76.50
75451;DHT22;64029;48.244;9.188;2023-02-16T13:03:28;7.50;76.70
75451;DHT22;64029;48.244;9.188;2023-02-16T13:06:06;8.00;74.80
75451;DHT22;64029;48.244;9.188;2023-02-16T13:08:39;7.80;75.70
75451;DHT22;64029;48.244;9.188;2023-02-16T13:11:13;7.70;76.80
75451;DHT22;64029;48.244;9.188;2023-02-16T13:13:42;8.00;75.40
75451;DHT22;64029;48.244;9.188;2023-02-16T13:16:14;7.90;74.40
75451;DHT22;64029;48.244;9.188;2023-02-16T13:18:45;8.30;74.50
75451;DHT22;64029;48.244;9.188;2023-02-16T13:21:27;8.10;74.50
75451;DHT22;64029;48.244;9.188;2023-02-16T13:24:01;8.30;74.30
75451;DHT22;64029;48.244;9.188;2023-02-16T13:26:39;8.20;74.50
75451;DHT22;64029;48.244;9.188;2023-02-16T13:29:25;8.60;72.30
75451;DHT22;64029;48.244;9.188;2023-02-16T13:34:56;8.60;73.60
75451;DHT22;64029;48.244;9.188;2023-02-16T13:40:38;8.60;74.20
75451;DHT22;64029;48.244;9.188;2023-02-16T13:43:22;8.60;74.80
75451;DHT22;64029;48.244;9.188;2023-02-16T13:45:55;8.60;74.80
75451;DHT22;64029;48.244;9.188;2023-02-16T13:48:27;8.60;72.70
75451;DHT22;64029;48.244;9.188;2023-02-16T13:51:02;8.80;71.90
75451;DHT22;64029;48.244;9.188;2023-02-16T13:53:34;8.90;70.90
75451;DHT22;64029;48.244;9.188;2023-02-16T13:56:14;9.00;70.30
75451;DHT22;64029;48.244;9.188;2023-02-16T13:58:42;8.80;73.30
75451;DHT22;64029;48.244;9.188;2023-02-16T14:01:38;8.80;75.00
75451;DHT22;64029;48.244;9.188;2023-02-16T14:04:11;8.80;72.40
75451;DHT22;64029;48.244;9.188;2023-02-16T14:06:40;8.90;72.30
75451;DHT22;64029;48.244;9.188;2023-02-16T14:09:30;8.90;75.20
75451;DHT22;64029;48.244;9.188;2023-02-16T14:12:01;8.80;74.90
75451;DHT22;64029;48.244;9.188;2023-02-16T14:14:30;8.70;75.30
75451;DHT22;64029;48.244;9.188;2023-02-16T14:17:15;8.70;75.60
75451;DHT22;64029;48.244;9.188;2023-02-16T14:19:51;8.70;76.50
75451;DHT22;64029;48.244;9.188;2023-02-16T14:22:23;8.70;76.80
75451;DHT22;64029;48.244;9.188;2023-02-16T14:24:55;8.80;75.60
75451;DHT22;64029;48.244;9.188;2023-02-16T14:27:40;8.90;68.10
75451;DHT22;64029;48.244;9.188;2023-02-16T14:30:15;8.90;72.20
75451;DHT22;64029;48.244;9.188;2023-02-16T14:32:48;8.80;74.00
75451;DHT22;64029;48.244;9.188;2023-02-16T14:35:18;8.90;68.40
75451;DHT22;64029;48.244;9.188;2023-02-16T14:37:54;8.80;71.80
75451;DHT22;64029;48.244;9.188;2023-02-16T14:40:40;8.60;73.60
75451;DHT22;64029;48.244;9.188;2023-02-16T14:43:18;8.70;72.70
75451;DHT22;64029;48.244;9.188;2023-02-16T14:49:11;8.60;73.40
75451;DHT22;64029;48.244;9.188;2023-02-16T14:52:00;8.60;73.80
75451;DHT22;64029;48.244;9.188;2023-02-16T14:54:50;8.60;74.70
75451;DHT22;64029;48.244;9.188;2023-02-16T14:57:22;8.50;76.60
75451;DHT22;64029;48.244;9.188;2023-02-16T14:59:55;8.50;77.90
75451;DHT22;64029;48.244;9.188;2023-02-16T15:02:27;8.50;77.70
75451;DHT22;64029;48.244;9.188;2023-02-16T15:04:54;8.40;78.40
75451;DHT22;64029;48.244;9.188;2023-02-16T15:07:24;8.40;76.20
75451;DHT22;64029;48.244;9.188;2023-02-16T15:09:56;8.40;78.80
75451;DHT22;64029;48.244;9.188;2023-02-16T15:12:26;8.40;78.70
75451;DHT22;64029;48.244;9.188;2023-02-16T15:14:57;8.40;79.00
75451;DHT22;64029;48.244;9.188;2023-02-16T15:17:29;8.40;78.80
75451;DHT22;64029;48.244;9.188;2023-02-16T15:20:00;8.40;79.60
75451;DHT22;64029;48.244;9.188;2023-02-16T15:22:28;8.40;78.30
75451;DHT22;64029;48.244;9.188;2023-02-16T15:24:59;8.40;78.70
75451;DHT22;64029;48.244;9.188;2023-02-16T15:27:28;8.30;79.90
75451;DHT22;64029;48.244;9.188;2023-02-16T15:30:18;8.30;79.20
75451;DHT22;64029;48.244;9.188;2023-02-16T15:32:49;8.30;77.00
75451;DHT22;64029;48.244;9.188;2023-02-16T15:35:22;8.30;80.20
75451;DHT22;64029;48.244;9.188;2023-02-16T15:38:02;8.30;80.90
75451;DHT22;64029;48.244;9.188;2023-02-16T15:40:30;8.30;78.90
75451;DHT22;64029;48.244;9.188;2023-02-16T15:43:08;8.20;78.90
75451;DHT22;64029;48.244;9.188;2023-02-16T15:45:36;8.20;80.60
75451;DHT22;64029;48.244;9.188;2023-02-16T15:48:14;8.20;81.10
75451;DHT22;64029;48.244;9.188;2023-02-16T15:50:41;8.10;81.10
75451;DHT22;64029;48.244;9.188;2023-02-16T15:53:11;8.10;81.50
75451;DHT22;64029;48.244;9.188;2023-02-16T15:55:44;8.10;81.30
75451;DHT22;64029;48.244;9.188;2023-02-16T15:58:12;8.00;80.60
75451;DHT22;64029;48.244;9.188;2023-02-16T16:00:41;8.00;81.10
75451;DHT22;64029;48.244;9.188;2023-02-16T16:03:14;7.90;81.10
75451;DHT22;64029;48.244;9.188;2023-02-16T16:05:42;7.90;80.80
75451;DHT22;64029;48.244;9.188;2023-02-16T16:08:21;7.80;80.30
75451;DHT22;64029;48.244;9.188;2023-02-16T16:10:51;7.70;80.50
75451;DHT22;64029;48.244;9.188;2023-02-16T16:13:22;7.70;80.60
75451;DHT22;64029;48.244;9.188;2023-02-16T16:15:49;7.60;80.60
75451;DHT22;64029;48.244;9.188;2023-02-16T16:18:36;7.60;80.80
75451;DHT22;64029;48.244;9.188;2023-02-16T16:21:12;7.50;80.60